Time;durP1;ratioP1;P1;durP2;ratioP2;P2;SDS_P1;SDS_P2;PMS_P1;PMS_P2;Temp;Humidity;BMP_temperature;BMP_pressure;BME280_temperature;BME280_humidity;BME280_pressure;Samples;Min_cycle;Max_cycle;Signal;HPM_P1;HPM_P2
2022/08/24 00:01:22;;;;;;;6.97;2.75;;;28.80;60.10;;;;;;5094107;28;20131;-74
2022/08/24 00:03:49;;;;;;;5.43;2.17;;;28.90;60.10;;;;;;5093928;28;20039;-73
2022/08/24 00:06:18;;;;;;;9.52;2.60;;;28.80;60.10;;;;;;5093613;28;20024;-73
2022/08/24 00:08:47;;;;;;;6.07;2.42;;;28.80;60.00;;;;;;5094125;28;20032;-73
2022/08/24 00:11:13;;;;;;;7.80;2.28;;;28.90;60.10;;;;;;5093608;28;20144;-74
2022/08/24 00:13:39;;;;;;;6.93;2.90;;;28.80;60.20;;;;;;5093652;28;20400;-73
2022/08/24 00:16:08;;;;;;;2.70;1.92;;;29.00;60.70;;;;;;5093445;28;20028;-74
2022/08/24 00:18:34;;;;;;;7.35;2.15;;;28.80;60.20;;;;;;5093113;28;20469;-73
2022/08/24 00:21:01;;;;;;;4.55;2.38;;;28.80;60.20;;;;;;5093368;28;20032;-73
2022/08/24 00:23:28;;;;;;;4.18;2.55;;;28.90;60.30;;;;;;5075504;28;20040;-74
2022/08/24 00:25:55;;;;;;;12.38;2.67;;;28.90;60.30;;;;;;5093532;28;20120;-74
2022/08/24 00:28:21;;;;;;;5.70;2.28;;;28.80;60.20;;;;;;5092662;28;20067;-73
2022/08/24 00:30:47;;;;;;;4.05;2.20;;;28.80;60.20;;;;;;5072830;28;20168;-73
2022/08/24 00:33:13;;;;;;;4.97;2.55;;;28.90;60.20;;;;;;5072867;28;20121;-74
2022/08/24 00:35:39;;;;;;;3.72;2.60;;;28.90;60.20;;;;;;5073035;28;20042;-74
2022/08/24 00:38:05;;;;;;;3.50;2.67;;;28.80;60.30;;;;;;5054926;28;20028;-74
2022/08/24 00:40:35;;;;;;;4.30;1.90;;;28.80;60.10;;;;;;5072782;28;20036;-73
2022/08/24 00:43:05;;;;;;;5.60;2.22;;;29.00;60.80;;;;;;5072727;28;20097;-74
2022/08/24 00:45:36;;;;;;;4.60;2.20;;;28.80;60.30;;;;;;5072753;28;20043;-74
2022/08/24 00:48:06;;;;;;;6.65;2.63;;;28.80;60.20;;;;;;5054543;28;20374;-74
2022/08/24 00:50:32;;;;;;;5.97;2.03;;;28.90;60.20;;;;;;5054940;28;20351;-74
2022/08/24 00:53:01;;;;;;;4.53;2.20;;;28.90;60.20;;;;;;5072620;28;20051;-74
2022/08/24 00:55:42;;;;;;;4.25;2.17;;;28.90;60.20;;;;;;5054896;28;20485;-74
2022/08/24 00:58:14;;;;;;;3.45;2.08;;;28.90;60.20;;;;;;5072600;28;20028;-74
2022/08/24 01:00:45;;;;;;;6.72;2.88;;;28.80;60.30;;;;;;5072843;28;20103;-74
2022/08/24 01:03:12;;;;;;;7.55;2.88;;;28.60;60.30;;;;;;5072450;28;20033;-74
2022/08/24 01:05:39;;;;;;;4.50;2.28;;;28.70;60.40;;;;;;5072515;28;20091;-73
2022/08/24 01:08:09;;;;;;;3.67;2.10;;;28.70;60.50;;;;;;5037791;28;20063;-74
2022/08/24 01:10:45;;;;;;;6.25;2.17;;;28.60;60.60;;;;;;5072421;28;20493;-74
2022/08/24 01:13:13;;;;;;;3.80;2.22;;;28.70;60.70;;;;;;5071002;28;20039;-74
2022/08/24 01:15:44;;;;;;;4.82;2.20;;;28.70;60.80;;;;;;5029920;28;20045;-74
2022/08/24 01:21:11;;;;;;;2.67;1.90;;;28.50;61.00;;;;;;5029821;28;20049;-73
2022/08/24 01:23:43;;;;;;;2.83;2.35;;;28.60;61.00;;;;;;5013139;28;20042;-74
2022/08/24 01:26:17;;;;;;;6.10;2.20;;;28.50;61.10;;;;;;5013393;28;20474;-73
2022/08/24 01:28:46;;;;;;;4.32;2.50;;;28.60;61.10;;;;;;5032839;28;20115;-74
2022/08/24 01:31:12;;;;;;;5.22;2.20;;;28.50;61.10;;;;;;5032838;28;20059;-74
2022/08/24 01:33:38;;;;;;;3.17;2.17;;;28.60;61.10;;;;;;5049575;28;20087;-74
2022/08/24 01:36:13;;;;;;;4.45;2.20;;;28.60;61.10;;;;;;5032940;28;20045;-73
2022/08/24 01:38:40;;;;;;;3.28;2.17;;;28.70;61.10;;;;;;5032860;28;20513;-74
2022/08/24 01:41:06;;;;;;;7.78;2.70;;;28.50;61.10;;;;;;5049339;28;20075;-74
2022/08/24 01:43:32;;;;;;;5.90;1.98;;;28.50;61.00;;;;;;5049413;28;20029;-74
2022/08/24 01:45:58;;;;;;;4.10;2.10;;;28.70;61.10;;;;;;5054351;28;20053;-74
2022/08/24 01:48:25;;;;;;;8.57;2.45;;;28.60;61.00;;;;;;5070507;28;20032;-74
2022/08/24 01:50:53;;;;;;;7.30;2.03;;;28.60;61.10;;;;;;5070761;28;20101;-73
2022/08/24 01:53:21;;;;;;;5.68;2.40;;;28.50;61.10;;;;;;5071953;28;20054;-74
2022/08/24 01:55:47;;;;;;;2.72;2.00;;;28.60;61.10;;;;;;5070293;28;20032;-74
2022/08/24 01:58:14;;;;;;;3.42;2.22;;;28.50;61.10;;;;;;5072001;28;20032;-73
2022/08/24 02:00:43;;;;;;;3.17;1.67;;;28.60;61.10;;;;;;5070925;28;20107;-74
2022/08/24 02:03:10;;;;;;;4.13;1.98;;;28.50;61.10;;;;;;5070424;28;20370;-74
2022/08/24 02:05:36;;;;;;;2.72;2.10;;;28.60;61.20;;;;;;5070464;28;20025;-73
2022/08/24 02:08:03;;;;;;;8.10;1.83;;;28.50;61.20;;;;;;5070365;28;20509;-74
2022/08/24 02:10:29;;;;;;;3.65;2.47;;;28.40;61.20;;;;;;5071784;28;20036;-74
2022/08/24 02:12:57;;;;;;;5.22;2.10;;;28.50;61.30;;;;;;5053662;28;20121;-73
2022/08/24 02:15:31;;;;;;;2.33;2.08;;;28.40;61.20;;;;;;5070857;28;20469;-74
2022/08/24 02:17:58;;;;;;;6.25;2.45;;;28.50;61.30;;;;;;5070257;28;20036;-73
2022/08/24 02:20:25;;;;;;;6.68;2.88;;;28.30;61.40;;;;;;5070529;28;20041;-73
2022/08/24 02:22:53;;;;;;;11.18;2.40;;;28.20;61.40;;;;;;5070088;28;20035;-74
2022/08/24 02:25:19;;;;;;;9.75;2.45;;;28.30;61.80;;;;;;5071286;28;20119;-74
2022/08/24 02:27:45;;;;;;;5.93;1.85;;;28.40;61.90;;;;;;5070821;28;20548;-74
2022/08/24 02:30:12;;;;;;;4.03;2.45;;;28.20;61.90;;;;;;5069767;28;20494;-74
2022/08/24 02:32:40;;;;;;;4.10;2.00;;;28.40;61.90;;;;;;5086616;28;20028;-74
2022/08/24 02:35:08;;;;;;;6.07;2.33;;;28.30;61.90;;;;;;5069841;28;20037;-74
2022/08/24 02:37:34;;;;;;;4.05;2.35;;;28.20;61.80;;;;;;5053454;28;20063;-73
2022/08/24 02:40:01;;;;;;;6.82;2.17;;;28.40;61.80;;;;;;5070182;28;20032;-73
2022/08/24 02:42:27;;;;;;;5.68;2.25;;;28.30;61.80;;;;;;5029849;28;20049;-74
2022/08/24 02:44:54;;;;;;;5.72;2.80;;;28.30;61.90;;;;;;5032778;28;20045;-73
2022/08/24 02:47:20;;;;;;;2.30;2.10;;;28.40;61.50;;;;;;5032464;28;20072;-73
2022/08/24 02:49:47;;;;;;;4.00;2.42;;;28.40;61.80;;;;;;5032802;28;20564;-74
2022/08/24 02:52:14;;;;;;;6.32;2.38;;;28.50;61.80;;;;;;5032744;28;20147;-74
2022/08/24 02:54:40;;;;;;;8.07;2.38;;;28.40;61.80;;;;;;5032783;28;20112;-74
2022/08/24 02:57:06;;;;;;;5.53;2.25;;;28.50;61.80;;;;;;5032620;28;20049;-74
2022/08/24 02:59:33;;;;;;;8.88;2.25;;;28.30;61.80;;;;;;5032574;28;20038;-74
2022/08/24 03:01:59;;;;;;;3.83;2.22;;;28.30;61.50;;;;;;5032553;28;20052;-74
2022/08/24 03:04:25;;;;;;;6.60;2.38;;;28.40;61.40;;;;;;5016003;28;20128;-73
2022/08/24 03:06:52;;;;;;;6.72;2.35;;;28.40;61.40;;;;;;5015963;28;20088;-74
2022/08/24 03:09:18;;;;;;;5.47;2.55;;;28.30;61.50;;;;;;5015611;28;20537;-73
2022/08/24 03:11:44;;;;;;;5.25;3.05;;;28.40;61.40;;;;;;4999443;28;20049;-73
2022/08/24 03:14:10;;;;;;;6.78;4.47;;;28.30;61.50;;;;;;5061269;28;20485;-74
2022/08/24 03:16:37;;;;;;;11.88;4.80;;;28.30;61.50;;;;;;5073350;28;20025;-74
2022/08/24 03:19:04;;;;;;;6.32;3.85;;;28.30;61.50;;;;;;5073153;28;20036;-73
2022/08/24 03:21:33;;;;;;;5.60;2.70;;;28.30;61.80;;;;;;5073310;28;20041;-74
2022/08/24 03:24:00;;;;;;;5.60;3.33;;;28.30;61.90;;;;;;5073218;28;20113;-74
2022/08/24 03:26:26;;;;;;;5.57;2.38;;;28.40;61.90;;;;;;5074441;28;20044;-74
2022/08/24 03:28:53;;;;;;;6.32;2.63;;;28.30;61.90;;;;;;5074371;28;20481;-74
2022/08/24 03:31:20;;;;;;;4.38;2.60;;;28.20;62.10;;;;;;5074037;28;20472;-73
2022/08/24 03:33:47;;;;;;;4.53;2.55;;;28.20;62.00;;;;;;5056508;28;20477;-74
2022/08/24 03:36:14;;;;;;;6.20;2.58;;;28.20;62.00;;;;;;5072858;28;20496;-73
2022/08/24 03:38:40;;;;;;;6.00;2.40;;;28.20;62.00;;;;;;5072933;28;20440;-74
2022/08/24 03:41:07;;;;;;;5.72;1.90;;;28.30;62.00;;;;;;5074147;28;20044;-74
2022/08/24 03:43:45;;;;;;;4.00;2.10;;;28.30;62.00;;;;;;5056165;28;20472;-73
2022/08/24 03:46:19;;;;;;;6.10;2.70;;;28.20;62.00;;;;;;5072889;28;20036;-74
2022/08/24 03:48:47;;;;;;;3.83;2.05;;;28.20;62.00;;;;;;5073936;28;20032;-74
2022/08/24 03:51:17;;;;;;;5.75;2.65;;;28.20;61.90;;;;;;5056514;28;20048;-74
2022/08/24 03:53:46;;;;;;;4.28;2.30;;;28.30;61.90;;;;;;5055301;28;20040;-74
2022/08/24 03:56:13;;;;;;;4.40;2.08;;;28.20;61.90;;;;;;5072821;28;20032;-74
2022/08/24 03:58:40;;;;;;;3.78;1.85;;;28.30;61.80;;;;;;5055853;28;20036;-74
2022/08/24 04:01:07;;;;;;;6.63;2.30;;;28.30;61.90;;;;;;5055838;28;20036;-73
2022/08/24 04:03:39;;;;;;;3.47;2.33;;;28.30;61.90;;;;;;5073822;28;20028;-74
2022/08/24 04:06:07;;;;;;;3.38;2.28;;;28.20;61.80;;;;;;5072614;28;20036;-74
2022/08/24 04:08:34;;;;;;;3.22;2.00;;;28.20;61.30;;;;;;5055552;28;20036;-73
2022/08/24 04:11:02;;;;;;;9.35;2.75;;;28.30;61.20;;;;;;5055556;28;20024;-73
2022/08/24 04:13:30;;;;;;;7.13;2.30;;;28.40;61.10;;;;;;5073518;28;20536;-74
2022/08/24 04:16:03;;;;;;;3.83;2.35;;;28.50;61.00;;;;;;5055622;28;20032;-73
2022/08/24 04:18:29;;;;;;;4.75;2.42;;;28.40;61.00;;;;;;5038558;28;20132;-73
2022/08/24 04:20:55;;;;;;;7.47;2.70;;;28.40;60.90;;;;;;5073280;28;20039;-74
2022/08/24 04:23:22;;;;;;;6.10;2.70;;;28.40;61.00;;;;;;5038887;28;20033;-73
2022/08/24 04:25:49;;;;;;;7.28;2.83;;;28.30;61.10;;;;;;5055393;28;20123;-74
2022/08/24 04:28:18;;;;;;;5.68;2.67;;;28.40;61.20;;;;;;5055105;28;20107;-74
2022/08/24 04:30:49;;;;;;;4.55;2.60;;;28.20;61.30;;;;;;5054346;28;20061;-74
2022/08/24 04:33:24;;;;;;;8.27;2.92;;;28.40;61.30;;;;;;5088811;28;20044;-73
2022/08/24 04:35:51;;;;;;;2.63;2.20;;;28.20;61.40;;;;;;5073060;28;20036;-74
2022/08/24 04:38:18;;;;;;;3.65;2.50;;;28.30;61.40;;;;;;5071718;28;20032;-74
2022/08/24 04:40:57;;;;;;;7.93;2.28;;;28.40;61.40;;;;;;5071406;28;20033;-73
2022/08/24 04:43:25;;;;;;;11.65;2.80;;;28.30;61.40;;;;;;5071519;28;20529;-74
2022/08/24 04:45:51;;;;;;;5.07;2.40;;;28.30;61.40;;;;;;5071387;28;20051;-74
2022/08/24 04:48:19;;;;;;;7.18;2.47;;;28.30;61.40;;;;;;5072805;28;20032;-74
2022/08/24 04:50:45;;;;;;;3.67;2.30;;;28.30;61.20;;;;;;5054761;28;20028;-74
2022/08/24 04:53:12;;;;;;;11.88;3.38;;;28.50;61.00;;;;;;5072639;28;20036;-73
2022/08/24 04:55:49;;;;;;;5.70;3.08;;;28.50;61.00;;;;;;5071360;28;20086;-74
2022/08/24 04:58:17;;;;;;;11.73;3.45;;;28.40;61.00;;;;;;5037111;28;20036;-73
2022/08/24 05:00:44;;;;;;;5.72;3.38;;;28.50;60.90;;;;;;5088170;28;20049;-74
2022/08/24 05:03:11;;;;;;;4.32;2.55;;;28.60;60.90;;;;;;5088087;28;20027;-74
2022/08/24 05:05:48;;;;;;;5.93;2.83;;;28.50;60.80;;;;;;5070988;28;20468;-74
2022/08/24 05:08:16;;;;;;;3.97;2.58;;;28.50;60.80;;;;;;5071323;28;20040;-74
2022/08/24 05:10:44;;;;;;;6.55;3.22;;;28.70;60.70;;;;;;5071346;28;20028;-74
2022/08/24 05:13:11;;;;;;;5.85;2.95;;;28.60;60.60;;;;;;5071126;28;20047;-74
2022/08/24 05:15:44;;;;;;;6.97;3.25;;;28.60;60.60;;;;;;5087782;28;20032;-73
2022/08/24 05:18:11;;;;;;;8.18;2.60;;;28.50;60.60;;;;;;5070861;28;20363;-74
2022/08/24 05:20:42;;;;;;;7.90;2.50;;;28.70;60.60;;;;;;5072140;28;20040;-74
2022/08/24 05:23:08;;;;;;;8.68;2.38;;;28.60;60.60;;;;;;5072145;28;20025;-74
2022/08/24 05:25:36;;;;;;;10.85;2.70;;;28.60;60.50;;;;;;5071092;28;20500;-74
2022/08/24 05:28:03;;;;;;;4.47;2.60;;;28.70;60.50;;;;;;5072269;28;20032;-74
2022/08/24 05:30:29;;;;;;;9.55;2.85;;;28.60;60.40;;;;;;5074011;28;20055;-73
2022/08/24 05:32:55;;;;;;;5.50;2.45;;;28.60;60.40;;;;;;5090774;28;20047;-73
2022/08/24 05:35:21;;;;;;;4.85;2.00;;;28.60;60.40;;;;;;5069301;28;20048;-73
2022/08/24 05:37:47;;;;;;;10.13;2.95;;;28.60;60.40;;;;;;5052687;28;20128;-72
2022/08/24 05:40:17;;;;;;;12.25;2.88;;;28.60;60.50;;;;;;5032302;28;20055;-74
2022/08/24 05:42:47;;;;;;;3.85;2.63;;;28.60;60.50;;;;;;5016229;28;20408;-74
2022/08/24 05:45:14;;;;;;;13.25;2.80;;;28.60;60.50;;;;;;5032169;28;20043;-74
2022/08/24 05:47:42;;;;;;;12.52;2.83;;;28.50;60.50;;;;;;5032348;28;20037;-74
2022/08/24 05:50:28;;;;;;;7.40;2.17;;;28.60;60.50;;;;;;5048739;28;20095;-73
2022/08/24 05:52:54;;;;;;;9.88;2.35;;;28.70;60.40;;;;;;5048859;28;20072;-74
2022/08/24 05:55:20;;;;;;;7.10;2.53;;;28.60;60.40;;;;;;5048912;28;20033;-74
2022/08/24 05:57:46;;;;;;;13.82;2.63;;;28.70;60.40;;;;;;5032083;28;20040;-73
2022/08/24 06:00:18;;;;;;;6.80;2.55;;;28.70;60.40;;;;;;5048816;28;20043;-74
2022/08/24 06:02:51;;;;;;;6.38;2.75;;;28.70;60.40;;;;;;5048749;28;20040;-74
2022/08/24 06:05:18;;;;;;;4.20;2.60;;;28.80;60.40;;;;;;5050397;28;20076;-74
2022/08/24 06:07:45;;;;;;;7.35;3.05;;;28.80;60.40;;;;;;5052543;28;20032;-73
2022/08/24 06:10:12;;;;;;;4.97;2.90;;;28.60;60.30;;;;;;5054343;28;20048;-74
2022/08/24 06:12:38;;;;;;;9.18;2.67;;;28.70;60.30;;;;;;5091600;28;20544;-73
2022/08/24 06:15:04;;;;;;;5.35;2.85;;;28.70;60.30;;;;;;5073772;28;20130;-74
2022/08/24 06:17:31;;;;;;;2.78;2.15;;;28.70;60.30;;;;;;5091682;28;20058;-74
2022/08/24 06:19:58;;;;;;;11.05;2.83;;;28.70;60.30;;;;;;5077522;28;20064;-74
2022/08/24 06:22:24;;;;;;;6.40;2.50;;;28.70;60.30;;;;;;5096008;28;20360;-74
2022/08/24 06:27:36;;;;;;;9.88;2.38;;;28.50;60.30;;;;;;5077653;28;20036;-74
2022/08/24 06:30:10;;;;;;;5.15;1.90;;;28.70;60.20;;;;;;5064791;28;20060;-74
2022/08/24 06:32:59;;;;;;;5.53;1.80;;;28.70;60.30;;;;;;5075183;28;20350;-73
2022/08/24 06:35:46;;;;;;;5.47;1.98;;;28.70;60.10;;;;;;5074624;28;20136;-74
2022/08/24 06:38:12;;;;;;;5.97;2.38;;;28.60;60.30;;;;;;5039617;28;20123;-73
2022/08/24 06:40:38;;;;;;;8.75;1.75;;;28.50;60.30;;;;;;5073947;28;20036;-74
2022/08/24 06:43:04;;;;;;;11.52;2.85;;;28.60;60.30;;;;;;5074827;28;20101;-73
2022/08/24 06:45:44;;;;;;;12.00;2.83;;;28.60;60.30;;;;;;5057256;28;20028;-73
2022/08/24 06:48:11;;;;;;;7.80;2.40;;;28.50;59.80;;;;;;5057081;28;20461;-73
2022/08/24 06:50:39;;;;;;;8.75;2.95;;;28.60;60.30;;;;;;5057044;28;20036;-73
2022/08/24 06:53:05;;;;;;;7.25;2.33;;;28.50;60.30;;;;;;5056992;28;20067;-73
2022/08/24 06:55:32;;;;;;;16.60;3.13;;;28.50;60.40;;;;;;5073513;28;20334;-73
2022/08/24 06:57:58;;;;;;;12.48;3.25;;;28.50;60.10;;;;;;5073800;28;20032;-73
2022/08/24 07:00:25;;;;;;;8.77;2.30;;;28.60;60.40;;;;;;5073323;28;20037;-73
2022/08/24 07:02:51;;;;;;;18.15;3.45;;;28.40;60.40;;;;;;5073939;28;20035;-73
2022/08/24 07:05:17;;;;;;;13.82;3.10;;;28.60;60.40;;;;;;5056797;28;20043;-73
2022/08/24 07:08:04;;;;;;;14.25;2.78;;;28.60;60.50;;;;;;5074654;28;20029;-73
2022/08/24 07:10:31;;;;;;;10.82;2.28;;;28.50;60.60;;;;;;5056998;28;20032;-73
2022/08/24 07:12:57;;;;;;;11.32;2.50;;;28.50;60.60;;;;;;5074494;28;20048;-73
2022/08/24 07:15:25;;;;;;;17.90;3.70;;;28.70;60.60;;;;;;5073243;28;20337;-73
2022/08/24 07:18:08;;;;;;;11.65;3.03;;;28.60;60.50;;;;;;5056515;28;20032;-73
2022/08/24 07:20:37;;;;;;;16.15;3.47;;;28.70;60.60;;;;;;5073136;28;20021;-73
2022/08/24 07:23:09;;;;;;;10.77;2.45;;;28.60;60.60;;;;;;5073244;28;20059;-73
2022/08/24 07:25:35;;;;;;;13.85;3.20;;;28.60;60.60;;;;;;5056764;28;20359;-74
2022/08/24 07:28:02;;;;;;;19.77;3.13;;;28.60;60.60;;;;;;5073060;28;20037;-74
2022/08/24 07:30:29;;;;;;;12.60;2.67;;;28.70;60.50;;;;;;5072318;28;20052;-74
2022/08/24 07:32:57;;;;;;;13.27;2.90;;;28.70;60.50;;;;;;5076301;28;20082;-73
2022/08/24 07:35:27;;;;;;;15.13;2.75;;;28.60;60.50;;;;;;5076086;28;20492;-73
2022/08/24 07:37:55;;;;;;;21.88;3.35;;;28.80;60.50;;;;;;5093067;28;20038;-74
2022/08/24 07:40:22;;;;;;;19.33;4.05;;;28.70;60.40;;;;;;5075995;28;20487;-74
2022/08/24 07:42:50;;;;;;;29.05;4.03;;;28.70;60.40;;;;;;5093213;28;20032;-73
2022/08/24 07:45:18;;;;;;;14.25;3.10;;;28.70;60.40;;;;;;5076342;28;20103;-73
2022/08/24 07:47:49;;;;;;;22.83;3.60;;;28.60;60.40;;;;;;5092780;28;20036;-74
2022/08/24 07:50:37;;;;;;;14.13;3.50;;;28.70;60.30;;;;;;5092731;28;20453;-74
2022/08/24 07:53:03;;;;;;;13.15;2.83;;;28.70;60.00;;;;;;5094133;28;20032;-74
2022/08/24 07:55:29;;;;;;;20.13;4.25;;;28.80;60.30;;;;;;5076164;28;20380;-74
2022/08/24 07:57:55;;;;;;;15.45;3.00;;;28.80;60.30;;;;;;5075813;28;20036;-74
2022/08/24 08:00:22;;;;;;;21.80;3.30;;;28.90;60.30;;;;;;5075775;28;20477;-73
2022/08/24 08:02:53;;;;;;;14.70;3.22;;;28.80;60.20;;;;;;5059428;28;20427;-73
2022/08/24 08:05:22;;;;;;;15.38;3.30;;;28.90;60.20;;;;;;5092796;28;20122;-74
2022/08/24 08:07:51;;;;;;;29.52;4.00;;;28.90;60.10;;;;;;5075733;28;20468;-74
2022/08/24 08:10:17;;;;;;;16.85;3.45;;;28.90;60.00;;;;;;5092672;28;20028;-74
2022/08/24 08:12:45;;;;;;;18.95;2.72;;;28.80;60.10;;;;;;5075611;28;20035;-74
2022/08/24 08:15:11;;;;;;;15.85;3.60;;;28.90;60.00;;;;;;5093960;28;20067;-73
2022/08/24 08:17:45;;;;;;;24.73;3.47;;;28.90;60.00;;;;;;5075647;28;20105;-74
2022/08/24 08:20:12;;;;;;;18.23;3.08;;;29.00;60.50;;;;;;5075114;28;20107;-73
2022/08/24 08:25:33;;;;;;;21.35;4.22;;;28.90;59.90;;;;;;5093167;28;20036;-74
2022/08/24 08:28:04;;;;;;;20.40;3.40;;;29.00;60.40;;;;;;5074692;28;20074;-74
2022/08/24 08:30:31;;;;;;;11.00;2.90;;;29.00;60.40;;;;;;5091644;28;20083;-74
2022/08/24 08:32:57;;;;;;;30.77;3.70;;;29.00;60.40;;;;;;5092823;28;20377;-74
2022/08/24 08:35:25;;;;;;;14.55;3.60;;;29.00;60.30;;;;;;5074703;28;20083;-74
2022/08/24 08:37:52;;;;;;;18.75;3.08;;;29.00;60.30;;;;;;5074962;28;20028;-74
2022/08/24 08:41:02;;;;;;;15.18;3.67;;;29.00;60.30;;;;;;5092627;28;20032;-74
2022/08/24 08:43:54;;;;;;;11.77;3.60;;;29.00;60.30;;;;;;5014016;28;20132;-74
2022/08/24 08:46:20;;;;;;;11.30;3.00;;;29.10;60.20;;;;;;5030344;28;20041;-74
2022/08/24 08:49:14;;;;;;;8.85;2.42;;;29.00;60.20;;;;;;5030596;28;20041;-74
2022/08/24 08:51:59;;;;;;;12.55;3.40;;;29.00;60.10;;;;;;5030109;28;20046;-74
2022/08/24 08:54:32;;;;;;;22.60;3.72;;;29.00;60.10;;;;;;5030320;28;20068;-74
2022/08/24 08:57:17;;;;;;;9.23;2.63;;;29.00;59.40;;;;;;4980969;28;20128;-74
2022/08/24 09:00:11;;;;;;;14.38;3.38;;;29.00;60.00;;;;;;5030242;28;20045;-74
2022/08/24 09:02:49;;;;;;;18.05;3.47;;;29.10;60.00;;;;;;5030223;28;20042;-74
2022/08/24 09:05:59;;;;;;;17.75;3.15;;;29.00;59.70;;;;;;5013709;28;20073;-74
2022/08/24 09:08:40;;;;;;;9.40;2.80;;;29.00;60.00;;;;;;5030126;28;20040;-74
2022/08/24 09:11:31;;;;;;;11.93;2.50;;;29.10;60.00;;;;;;5029883;28;20243;-73
2022/08/24 09:13:57;;;;;;;13.20;3.10;;;29.10;60.00;;;;;;5030055;28;20057;-74
2022/08/24 09:17:14;;;;;;;15.45;3.67;;;29.10;60.10;;;;;;5029675;28;20041;-74
2022/08/24 09:19:43;;;;;;;;;;;29.00;60.00;;;;;;5054856;28;20036;-74
2022/08/24 09:22:18;;;;;;;12.10;3.10;;;28.90;59.50;;;;;;5092486;28;19998;-74
2022/08/24 09:24:53;;;;;;;15.48;3.53;;;29.00;60.00;;;;;;5092453;28;20031;-74
2022/08/24 09:28:03;;;;;;;16.17;2.95;;;29.00;59.90;;;;;;5092073;28;20043;-74
2022/08/24 09:30:57;;;;;;;16.42;3.38;;;29.00;60.00;;;;;;5076124;28;20118;-74
2022/08/24 09:33:28;;;;;;;;;;;29.10;60.00;;;;;;4990758;28;20050;-74
2022/08/24 09:36:08;;;;;;;7.00;2.83;;;29.00;59.50;;;;;;4990349;28;19913;-74
2022/08/24 09:39:13;;;;;;;15.70;3.08;;;29.00;60.00;;;;;;4990154;28;20566;-74
2022/08/24 09:42:00;;;;;;;10.52;3.60;;;29.00;59.90;;;;;;4951353;29;20130;-73
2022/08/24 09:44:38;;;;;;;15.30;2.92;;;29.00;59.90;;;;;;4951536;29;20051;-75
2022/08/24 09:47:19;;;;;;;16.95;3.58;;;29.10;59.70;;;;;;4951318;29;20775;-73
2022/08/24 09:50:00;;;;;;;10.70;2.75;;;29.00;59.80;;;;;;4951522;29;20038;-74
2022/08/24 09:53:04;;;;;;;16.63;3.45;;;29.00;59.60;;;;;;4950264;28;20130;-74
2022/08/24 09:56:00;;;;;;;15.63;3.70;;;29.00;59.60;;;;;;4935463;29;20763;-74
2022/08/24 09:58:46;;;;;;;5.35;2.67;;;29.00;59.90;;;;;;4951492;29;20481;-74
2022/08/24 10:01:42;;;;;;;8.45;2.13;;;29.00;59.90;;;;;;4951299;29;20054;-74
2022/08/24 10:04:14;;;;;;;15.57;2.67;;;29.00;59.80;;;;;;4951346;29;20051;-74
2022/08/24 10:06:46;;;;;;;6.05;2.65;;;28.90;59.40;;;;;;4951691;29;20454;-74
2022/08/24 10:09:36;;;;;;;6.85;2.85;;;28.90;59.40;;;;;;4952231;28;20154;-74
2022/08/24 10:12:52;;;;;;;14.77;3.15;;;29.00;60.00;;;;;;5043163;28;20049;-74
2022/08/24 10:15:26;;;;;;;7.65;2.72;;;29.00;60.00;;;;;;4989618;28;20077;-74
2022/08/24 10:18:31;;;;;;;11.18;2.85;;;28.90;59.50;;;;;;4989992;28;20034;-74
2022/08/24 10:21:19;;;;;;;9.50;2.88;;;29.00;60.00;;;;;;4989686;28;20034;-74
2022/08/24 10:23:54;;;;;;;6.95;3.03;;;28.90;59.50;;;;;;4989963;28;20213;-73
2022/08/24 10:26:36;;;;;;;15.30;2.72;;;29.10;60.10;;;;;;4989697;28;20050;-74
2022/08/24 10:29:26;;;;;;;6.10;2.40;;;29.10;60.10;;;;;;4993332;28;20550;-74
2022/08/24 10:32:46;;;;;;;8.35;2.75;;;29.00;60.10;;;;;;5009122;28;20050;-73
2022/08/24 10:35:57;;;;;;;7.20;2.40;;;29.10;60.10;;;;;;4951050;29;20039;-74
2022/08/24 10:41:29;;;;;;;14.82;3.38;;;29.00;60.00;;;;;;4875357;29;20033;-74
2022/08/24 10:44:13;;;;;;;11.48;3.33;;;29.10;60.00;;;;;;4875375;29;20422;-73
2022/08/24 10:47:00;;;;;;;11.48;3.38;;;28.90;59.50;;;;;;4875588;29;20044;-74
2022/08/24 10:49:35;;;;;;;11.13;3.38;;;29.00;60.00;;;;;;4875146;29;20049;-73
2022/08/24 10:52:06;;;;;;;8.00;2.78;;;29.10;60.00;;;;;;4897927;29;20055;-74
2022/08/24 10:54:34;;;;;;;13.02;3.53;;;29.10;60.10;;;;;;4912665;29;20048;-74
2022/08/24 10:57:29;;;;;;;8.07;2.92;;;29.00;59.50;;;;;;4912631;29;20052;-74
2022/08/24 11:00:13;;;;;;;9.73;2.95;;;28.90;59.50;;;;;;4912796;29;20179;-74
2022/08/24 11:02:42;;;;;;;4.85;2.50;;;28.90;59.40;;;;;;4912583;29;20052;-74
2022/08/24 11:05:27;;;;;;;5.97;2.30;;;28.90;59.50;;;;;;4916158;29;20039;-74
2022/08/24 11:07:58;;;;;;;5.78;2.45;;;28.90;59.50;;;;;;4916221;29;20051;-74
2022/08/24 11:10:28;;;;;;;15.00;3.80;;;29.00;60.10;;;;;;4993180;28;20030;-74
2022/08/24 11:12:54;;;;;;;9.68;2.97;;;28.80;59.60;;;;;;4992594;28;20038;-74
2022/08/24 11:15:26;;;;;;;7.63;2.45;;;28.90;59.60;;;;;;5037766;28;20046;-74
2022/08/24 11:18:00;;;;;;;3.30;1.85;;;28.90;59.60;;;;;;5074369;28;20036;-74
2022/08/24 11:20:33;;;;;;;15.23;2.60;;;28.90;59.60;;;;;;5074747;28;20043;-74
2022/08/24 11:23:06;;;;;;;10.30;2.72;;;28.90;59.60;;;;;;5074350;28;20028;-74
2022/08/24 11:25:36;;;;;;;15.40;3.05;;;28.90;59.60;;;;;;5074502;28;20028;-74
2022/08/24 11:28:39;;;;;;;13.95;2.92;;;28.90;59.60;;;;;;5074775;28;20040;-74
2022/08/24 11:31:13;;;;;;;7.47;3.00;;;29.00;60.20;;;;;;5074545;28;20045;-74
2022/08/24 11:33:49;;;;;;;19.55;3.30;;;29.00;60.20;;;;;;5074341;28;20048;-74
2022/08/24 11:36:22;;;;;;;21.15;3.17;;;28.90;59.60;;;;;;5089855;28;20074;-74
2022/08/24 11:39:10;;;;;;;6.43;2.60;;;29.00;60.20;;;;;;5089910;28;20119;-74
2022/08/24 11:42:05;;;;;;;18.95;3.35;;;29.10;60.20;;;;;;5073884;28;20051;-74
2022/08/24 11:44:37;;;;;;;19.23;3.83;;;29.10;60.10;;;;;;5031756;28;20045;-74
2022/08/24 11:47:08;;;;;;;15.82;3.45;;;29.00;60.10;;;;;;5031694;28;20049;-74
2022/08/24 11:50:16;;;;;;;10.30;2.60;;;29.00;60.10;;;;;;5031936;28;20123;-74
2022/08/24 11:52:58;;;;;;;14.55;2.88;;;29.10;60.10;;;;;;4972241;28;20543;-73
2022/08/24 11:55:49;;;;;;;18.00;2.95;;;29.10;60.10;;;;;;4956695;28;20090;-74
2022/08/24 11:58:28;;;;;;;19.15;3.28;;;29.10;60.10;;;;;;4956326;28;20046;-74
2022/08/24 12:01:19;;;;;;;17.08;2.92;;;29.00;60.10;;;;;;4972559;28;20034;-74
2022/08/24 12:04:20;;;;;;;16.63;3.33;;;29.00;60.10;;;;;;4895957;29;20037;-74
2022/08/24 12:07:05;;;;;;;19.70;3.25;;;29.00;60.20;;;;;;4896000;29;20037;-74
2022/08/24 12:09:46;;;;;;;13.70;3.00;;;28.90;59.60;;;;;;4896097;29;20140;-74
2022/08/24 12:12:41;;;;;;;16.20;3.40;;;28.80;59.60;;;;;;4895859;29;20144;-74
2022/08/24 12:15:40;;;;;;;10.57;3.10;;;28.80;59.60;;;;;;4894804;29;20056;-74
2022/08/24 12:18:23;;;;;;;13.70;3.00;;;28.90;59.60;;;;;;4896030;29;20178;-74
2022/08/24 12:20:51;;;;;;;16.70;2.78;;;28.90;59.70;;;;;;4899407;29;20068;-74
2022/08/24 12:23:29;;;;;;;12.88;2.40;;;28.80;59.80;;;;;;4914393;29;20601;-74
2022/08/24 12:26:03;;;;;;;16.30;3.70;;;28.80;59.70;;;;;;4914684;29;20036;-74
2022/08/24 12:28:43;;;;;;;17.75;3.13;;;28.80;59.80;;;;;;4905385;28;20052;-74
2022/08/24 12:31:32;;;;;;;7.05;1.83;;;29.00;60.30;;;;;;4972289;28;20051;-74
2022/08/24 12:34:03;;;;;;;9.82;2.75;;;28.80;59.80;;;;;;4971860;28;20058;-74
2022/08/24 12:36:35;;;;;;;14.05;2.65;;;28.90;59.80;;;;;;4956086;28;20038;-74
2022/08/24 12:39:14;;;;;;;10.10;2.58;;;29.00;60.30;;;;;;4972069;28;20070;-74
2022/08/24 12:42:02;;;;;;;16.17;2.65;;;29.00;60.30;;;;;;5059737;28;20131;-74
2022/08/24 12:44:39;;;;;;;16.42;2.30;;;29.00;60.30;;;;;;5072737;28;20432;-74
2022/08/24 12:47:05;;;;;;;11.75;3.13;;;29.00;60.30;;;;;;5072891;28;20028;-74
2022/08/24 12:49:45;;;;;;;12.43;2.00;;;29.00;60.30;;;;;;5072869;28;20036;-74
2022/08/24 12:52:47;;;;;;;10.85;2.70;;;29.00;60.30;;;;;;5072679;28;20047;-74
2022/08/24 12:55:24;;;;;;;21.42;2.55;;;28.90;59.70;;;;;;5072786;28;20016;-74
2022/08/24 12:58:03;;;;;;;8.25;3.05;;;28.90;59.70;;;;;;5072672;28;20437;-74
2022/08/24 13:00:35;;;;;;;20.27;3.88;;;29.10;60.20;;;;;;5070095;28;20471;-74
2022/08/24 13:03:08;;;;;;;10.35;2.60;;;29.10;60.20;;;;;;5072077;28;20556;-74
2022/08/24 13:05:43;;;;;;;13.50;2.10;;;29.10;60.20;;;;;;5072500;28;20047;-74
2022/08/24 13:08:20;;;;;;;17.13;2.53;;;29.00;60.30;;;;;;5072491;28;20396;-74
2022/08/24 13:11:04;;;;;;;12.85;2.20;;;29.00;60.30;;;;;;5072548;28;20033;-74
2022/08/24 13:13:54;;;;;;;4.53;1.73;;;29.00;60.30;;;;;;5072310;28;20063;-74
2022/08/24 13:16:56;;;;;;;19.80;3.00;;;28.90;59.70;;;;;;5029793;28;20176;-74
2022/08/24 13:19:22;;;;;;;21.43;3.07;;;29.00;60.30;;;;;;5029770;28;20068;-74
2022/08/24 13:21:57;;;;;;;10.80;2.47;;;29.00;60.30;;;;;;5013333;28;20679;-74
2022/08/24 13:24:29;;;;;;;15.07;2.22;;;29.00;60.30;;;;;;5029636;28;20041;-74
2022/08/24 13:27:16;;;;;;;16.25;2.28;;;28.80;59.70;;;;;;4989889;28;20030;-74